sensor_id;sensor_type;location;lat;lon;timestamp;pressure;altitude;pressure_sealevel;temperature;humidity
46303;BME280;32029;51.358;5.628;2023-04-07T00:02:05;101188.28;;;11.92;100.00
46303;BME280;32029;51.358;5.628;2023-04-07T00:04:33;101194.84;;;11.91;100.00
46303;BME280;32029;51.358;5.628;2023-04-07T00:06:59;101192.94;;;11.92;100.00
46303;BME280;32029;51.358;5.628;2023-04-07T00:09:26;101194.63;;;11.93;100.00
46303;BME280;32029;51.358;5.628;2023-04-07T00:11:53;101204.13;;;11.90;100.00
46303;BME280;32029;51.358;5.628;2023-04-07T00:14:19;101203.66;;;11.87;100.00
46303;BME280;32029;51.358;5.628;2023-04-07T00:16:46;101203.31;;;11.82;100.00
46303;BME280;32029;51.358;5.628;2023-04-07T00:19:13;101184.13;;;11.73;100.00
46303;BME280;32029;51.358;5.628;2023-04-07T00:21:39;101215.31;;;11.89;100.00
46303;BME280;32029;51.358;5.628;2023-04-07T00:24:06;101206.03;;;11.90;100.00
46303;BME280;32029;51.358;5.628;2023-04-07T00:26:33;101210.50;;;11.91;100.00
46303;BME280;32029;51.358;5.628;2023-04-07T00:29:00;101214.56;;;11.95;100.00
46303;BME280;32029;51.358;5.628;2023-04-07T00:31:27;101201.88;;;11.94;99.94
46303;BME280;32029;51.358;5.628;2023-04-07T00:33:53;101201.31;;;11.98;99.88
46303;BME280;32029;51.358;5.628;2023-04-07T00:36:21;101211.06;;;12.01;99.51
46303;BME280;32029;51.358;5.628;2023-04-07T00:38:47;101210.41;;;11.99;99.44
46303;BME280;32029;51.358;5.628;2023-04-07T00:41:14;101215.06;;;11.98;99.56
46303;BME280;32029;51.358;5.628;2023-04-07T00:43:41;101211.81;;;11.95;99.29
46303;BME280;32029;51.358;5.628;2023-04-07T00:46:08;101217.97;;;11.97;99.38
46303;BME280;32029;51.358;5.628;2023-04-07T00:48:35;101214.09;;;11.91;99.05
46303;BME280;32029;51.358;5.628;2023-04-07T00:51:03;101210.50;;;11.91;98.82
46303;BME280;32029;51.358;5.628;2023-04-07T00:53:30;101212.88;;;11.94;99.21
46303;BME280;32029;51.358;5.628;2023-04-07T00:55:57;101206.69;;;11.92;99.14
46303;BME280;32029;51.358;5.628;2023-04-07T00:58:23;101206.03;;;11.90;98.70
46303;BME280;32029;51.358;5.628;2023-04-07T01:00:56;101205.72;;;11.85;98.85
46303;BME280;32029;51.358;5.628;2023-04-07T01:03:48;101198.69;;;11.82;99.16
46303;BME280;32029;51.358;5.628;2023-04-07T01:06:19;101199.53;;;11.83;99.39
46303;BME280;32029;51.358;5.628;2023-04-07T01:09:04;101201.97;;;11.77;98.84
46303;BME280;32029;51.358;5.628;2023-04-07T01:11:41;101217.03;;;11.90;98.66
46303;BME280;32029;51.358;5.628;2023-04-07T01:14:12;101216.16;;;11.89;98.47
46303;BME280;32029;51.358;5.628;2023-04-07T01:16:51;101210.28;;;11.92;98.39
46303;BME280;32029;51.358;5.628;2023-04-07T01:19:36;101208.22;;;11.94;97.87
46303;BME280;32029;51.358;5.628;2023-04-07T01:22:10;101220.44;;;11.92;97.57
46303;BME280;32029;51.358;5.628;2023-04-07T01:27:57;101213.25;;;11.91;97.84
46303;BME280;32029;51.358;5.628;2023-04-07T01:30:31;101218.06;;;11.89;97.79
46303;BME280;32029;51.358;5.628;2023-04-07T01:32:59;101223.19;;;11.92;97.21
46303;BME280;32029;51.358;5.628;2023-04-07T01:35:30;101220.63;;;11.90;96.94
46303;BME280;32029;51.358;5.628;2023-04-07T01:37:58;101222.22;;;11.85;96.78
46303;BME280;32029;51.358;5.628;2023-04-07T01:40:26;101218.84;;;11.74;96.60
46303;BME280;32029;51.358;5.628;2023-04-07T01:42:55;101210.78;;;11.73;97.35
46303;BME280;32029;51.358;5.628;2023-04-07T01:45:23;101214.00;;;11.76;96.74
46303;BME280;32029;51.358;5.628;2023-04-07T01:47:53;101221.53;;;11.83;96.77
46303;BME280;32029;51.358;5.628;2023-04-07T01:50:20;101208.88;;;11.73;96.84
46303;BME280;32029;51.358;5.628;2023-04-07T01:52:47;101220.53;;;11.84;96.69
46303;BME280;32029;51.358;5.628;2023-04-07T01:55:14;101225.31;;;11.82;95.94
46303;BME280;32029;51.358;5.628;2023-04-07T01:57:41;101221.41;;;11.76;95.86
46303;BME280;32029;51.358;5.628;2023-04-07T02:00:08;101224.34;;;11.74;95.89
46303;BME280;32029;51.358;5.628;2023-04-07T02:02:40;101221.59;;;11.74;95.92
46303;BME280;32029;51.358;5.628;2023-04-07T02:05:13;101222.25;;;11.76;95.71
46303;BME280;32029;51.358;5.628;2023-04-07T02:07:58;101220.56;;;11.75;95.39
46303;BME280;32029;51.358;5.628;2023-04-07T02:10:28;101216.47;;;11.71;95.19
46303;BME280;32029;51.358;5.628;2023-04-07T02:12:57;101223.47;;;11.74;95.03
46303;BME280;32029;51.358;5.628;2023-04-07T02:15:26;101223.69;;;11.72;94.96
46303;BME280;32029;51.358;5.628;2023-04-07T02:17:56;101220.28;;;11.70;94.43
46303;BME280;32029;51.358;5.628;2023-04-07T02:20:23;101227.47;;;11.71;94.30
46303;BME280;32029;51.358;5.628;2023-04-07T02:22:50;101224.78;;;11.63;94.24
46303;BME280;32029;51.358;5.628;2023-04-07T02:25:28;101227.72;;;11.62;93.96
46303;BME280;32029;51.358;5.628;2023-04-07T02:27:56;101232.69;;;11.66;94.13
46303;BME280;32029;51.358;5.628;2023-04-07T02:30:24;101219.47;;;11.62;93.76
46303;BME280;32029;51.358;5.628;2023-04-07T02:32:51;101231.44;;;11.69;93.58
46303;BME280;32029;51.358;5.628;2023-04-07T02:35:18;101233.69;;;11.65;93.52
46303;BME280;32029;51.358;5.628;2023-04-07T02:37:45;101205.31;;;11.50;94.03
46303;BME280;32029;51.358;5.628;2023-04-07T02:40:12;101237.06;;;11.75;93.71
46303;BME280;32029;51.358;5.628;2023-04-07T02:42:39;101248.53;;;11.79;93.47
46303;BME280;32029;51.358;5.628;2023-04-07T02:45:08;101243.53;;;11.83;93.25
46303;BME280;32029;51.358;5.628;2023-04-07T02:47:35;101211.53;;;11.67;93.09
46303;BME280;32029;51.358;5.628;2023-04-07T02:50:02;101239.41;;;11.87;93.34
46303;BME280;32029;51.358;5.628;2023-04-07T02:52:29;101246.59;;;11.88;92.93
46303;BME280;32029;51.358;5.628;2023-04-07T02:54:56;101241.94;;;11.88;92.85
46303;BME280;32029;51.358;5.628;2023-04-07T02:57:23;101213.72;;;11.71;92.76
46303;BME280;32029;51.358;5.628;2023-04-07T02:59:49;101238.72;;;11.85;93.21
46303;BME280;32029;51.358;5.628;2023-04-07T03:02:16;101246.59;;;11.88;93.40
46303;BME280;32029;51.358;5.628;2023-04-07T03:04:43;101237.31;;;11.89;93.55
46303;BME280;32029;51.358;5.628;2023-04-07T03:07:09;101242.63;;;11.90;93.41
46303;BME280;32029;51.358;5.628;2023-04-07T03:09:36;101236.09;;;11.91;92.99
46303;BME280;32029;51.358;5.628;2023-04-07T03:12:03;101243.47;;;11.91;92.52
46303;BME280;32029;51.358;5.628;2023-04-07T03:14:30;101238.16;;;11.89;92.64
46303;BME280;32029;51.358;5.628;2023-04-07T03:16:56;101232.16;;;11.86;91.79
46303;BME280;32029;51.358;5.628;2023-04-07T03:19:23;101235.44;;;11.81;91.94
46303;BME280;32029;51.358;5.628;2023-04-07T03:21:50;101234.31;;;11.75;91.96
46303;BME280;32029;51.358;5.628;2023-04-07T03:24:17;101206.13;;;11.59;92.61
46303;BME280;32029;51.358;5.628;2023-04-07T03:26:43;101236.69;;;11.78;92.07
46303;BME280;32029;51.358;5.628;2023-04-07T03:29:10;101232.22;;;11.77;92.01
46303;BME280;32029;51.358;5.628;2023-04-07T03:31:37;101229.84;;;11.74;91.67
46303;BME280;32029;51.358;5.628;2023-04-07T03:34:04;101228.44;;;11.78;91.68
46303;BME280;32029;51.358;5.628;2023-04-07T03:36:30;101236.00;;;11.76;90.96
46303;BME280;32029;51.358;5.628;2023-04-07T03:38:57;101240.66;;;11.76;91.23
46303;BME280;32029;51.358;5.628;2023-04-07T03:41:24;101233.63;;;11.73;91.38
46303;BME280;32029;51.358;5.628;2023-04-07T03:43:51;101242.19;;;11.78;90.97
46303;BME280;32029;51.358;5.628;2023-04-07T03:46:21;101234.09;;;11.77;90.10
46303;BME280;32029;51.358;5.628;2023-04-07T03:48:47;101234.47;;;11.74;90.64
46303;BME280;32029;51.358;5.628;2023-04-07T03:51:14;101239.97;;;11.74;90.32
46303;BME280;32029;51.358;5.628;2023-04-07T03:53:41;101237.06;;;11.75;90.84
46303;BME280;32029;51.358;5.628;2023-04-07T03:56:07;101238.41;;;11.80;90.54
46303;BME280;32029;51.358;5.628;2023-04-07T03:58:34;101238.19;;;11.81;90.66
46303;BME280;32029;51.358;5.628;2023-04-07T04:01:01;101239.75;;;11.84;91.07
46303;BME280;32029;51.358;5.628;2023-04-07T04:03:28;101239.56;;;11.85;90.59
46303;BME280;32029;51.358;5.628;2023-04-07T04:05:55;101239.75;;;11.84;90.20
46303;BME280;32029;51.358;5.628;2023-04-07T04:08:22;101239.75;;;11.84;90.44
46303;BME280;32029;51.358;5.628;2023-04-07T04:10:49;101238.91;;;11.83;90.56
46303;BME280;32029;51.358;5.628;2023-04-07T04:13:16;101245.59;;;11.81;90.33
46303;BME280;32029;51.358;5.628;2023-04-07T04:15:42;101242.19;;;11.78;90.58
46303;BME280;32029;51.358;5.628;2023-04-07T04:18:09;101243.22;;;11.77;90.84
46303;BME280;32029;51.358;5.628;2023-04-07T04:20:36;101245.09;;;11.77;90.97
46303;BME280;32029;51.358;5.628;2023-04-07T04:23:03;101250.50;;;11.70;90.66
46303;BME280;32029;51.358;5.628;2023-04-07T04:25:29;101243.34;;;11.61;91.17
46303;BME280;32029;51.358;5.628;2023-04-07T04:27:56;101254.34;;;11.61;91.48
46303;BME280;32029;51.358;5.628;2023-04-07T04:30:23;101252.84;;;11.59;91.65
46303;BME280;32029;51.358;5.628;2023-04-07T04:32:49;101257.44;;;11.58;91.74
46303;BME280;32029;51.358;5.628;2023-04-07T04:35:16;101253.19;;;11.56;91.96
46303;BME280;32029;51.358;5.628;2023-04-07T04:37:43;101238.19;;;11.43;91.81
46303;BME280;32029;51.358;5.628;2023-04-07T04:40:10;101262.66;;;11.53;92.24
46303;BME280;32029;51.358;5.628;2023-04-07T04:42:37;101265.25;;;11.55;91.79
46303;BME280;32029;51.358;5.628;2023-04-07T04:45:04;101265.03;;;11.56;92.30
46303;BME280;32029;51.358;5.628;2023-04-07T04:47:31;101255.31;;;11.45;91.66
46303;BME280;32029;51.358;5.628;2023-04-07T04:49:57;101258.97;;;11.38;91.90
46303;BME280;32029;51.358;5.628;2023-04-07T04:52:24;101255.63;;;11.27;92.68
46303;BME280;32029;51.358;5.628;2023-04-07T04:54:51;101270.31;;;11.35;92.25
46303;BME280;32029;51.358;5.628;2023-04-07T04:57:17;101285.09;;;11.34;92.60
46303;BME280;32029;51.358;5.628;2023-04-07T04:59:44;101287.84;;;11.34;93.19
46303;BME280;32029;51.358;5.628;2023-04-07T05:02:11;101285.81;;;11.36;92.94
46303;BME280;32029;51.358;5.628;2023-04-07T05:04:37;101293.34;;;11.34;92.90
46303;BME280;32029;51.358;5.628;2023-04-07T05:07:04;101289.75;;;11.33;92.94
46303;BME280;32029;51.358;5.628;2023-04-07T05:09:31;101281.38;;;11.26;92.68
46303;BME280;32029;51.358;5.628;2023-04-07T05:11:58;101291.88;;;11.23;93.44
46303;BME280;32029;51.358;5.628;2023-04-07T05:14:24;101284.50;;;11.23;93.71
46303;BME280;32029;51.358;5.628;2023-04-07T05:16:51;101281.25;;;11.20;93.25
46303;BME280;32029;51.358;5.628;2023-04-07T05:19:19;101291.00;;;11.22;93.14
46303;BME280;32029;51.358;5.628;2023-04-07T05:21:46;101286.91;;;11.18;92.89
46303;BME280;32029;51.358;5.628;2023-04-07T05:24:12;101292.09;;;11.13;93.35
46303;BME280;32029;51.358;5.628;2023-04-07T05:26:39;101294.53;;;11.08;93.09
46303;BME280;32029;51.358;5.628;2023-04-07T05:29:06;101298.00;;;11.02;93.11
46303;BME280;32029;51.358;5.628;2023-04-07T05:31:33;101301.94;;;10.99;94.09
46303;BME280;32029;51.358;5.628;2023-04-07T05:34:02;101302.63;;;11.01;93.41
46303;BME280;32029;51.358;5.628;2023-04-07T05:36:29;101310.38;;;10.98;94.13
46303;BME280;32029;51.358;5.628;2023-04-07T05:38:56;101309.50;;;10.97;94.18
46303;BME280;32029;51.358;5.628;2023-04-07T05:41:23;101297.69;;;10.97;94.77
46303;BME280;32029;51.358;5.628;2023-04-07T05:43:50;101310.53;;;11.04;94.41
46303;BME280;32029;51.358;5.628;2023-04-07T05:46:16;101311.03;;;11.08;93.82
46303;BME280;32029;51.358;5.628;2023-04-07T05:48:43;101305.16;;;11.11;94.06
46303;BME280;32029;51.358;5.628;2023-04-07T05:51:10;101313.22;;;11.13;93.60
46303;BME280;32029;51.358;5.628;2023-04-07T05:53:36;101291.47;;;11.03;93.60
46303;BME280;32029;51.358;5.628;2023-04-07T05:56:03;101301.53;;;11.11;93.19
46303;BME280;32029;51.358;5.628;2023-04-07T05:58:30;101322.97;;;11.15;93.22
46303;BME280;32029;51.358;5.628;2023-04-07T06:00:56;101327.25;;;11.18;93.16
46303;BME280;32029;51.358;5.628;2023-04-07T06:03:23;101321.56;;;11.19;93.56
46303;BME280;32029;51.358;5.628;2023-04-07T06:05:50;101325.31;;;11.26;93.33
46303;BME280;32029;51.358;5.628;2023-04-07T06:08:16;101319.97;;;11.33;93.33
46303;BME280;32029;51.358;5.628;2023-04-07T06:10:43;101325.97;;;11.37;93.34
46303;BME280;32029;51.358;5.628;2023-04-07T06:13:10;101333.13;;;11.46;93.09
46303;BME280;32029;51.358;5.628;2023-04-07T06:15:37;101331.19;;;11.55;92.93
46303;BME280;32029;51.358;5.628;2023-04-07T06:18:04;101336.16;;;11.59;92.80
46303;BME280;32029;51.358;5.628;2023-04-07T06:20:31;101334.38;;;11.66;91.90
46303;BME280;32029;51.358;5.628;2023-04-07T06:22:57;101335.53;;;11.72;92.17
46303;BME280;32029;51.358;5.628;2023-04-07T06:25:24;101340.97;;;11.80;91.41
46303;BME280;32029;51.358;5.628;2023-04-07T06:27:52;101348.53;;;11.86;91.61
46303;BME280;32029;51.358;5.628;2023-04-07T06:30:19;101342.47;;;11.91;91.13
46303;BME280;32029;51.358;5.628;2023-04-07T06:32:46;101342.28;;;11.92;90.78
46303;BME280;32029;51.358;5.628;2023-04-07T06:35:12;101341.44;;;11.92;90.95
46303;BME280;32029;51.358;5.628;2023-04-07T06:37:39;101344.00;;;11.93;91.13
46303;BME280;32029;51.358;5.628;2023-04-07T06:40:06;101346.22;;;11.98;90.63
46303;BME280;32029;51.358;5.628;2023-04-07T06:42:33;101352.22;;;12.01;91.02
46303;BME280;32029;51.358;5.628;2023-04-07T06:45:00;101340.88;;;11.96;90.62
46303;BME280;32029;51.358;5.628;2023-04-07T06:47:27;101352.84;;;12.04;90.70
46303;BME280;32029;51.358;5.628;2023-04-07T06:49:53;101362.81;;;12.05;90.35
46303;BME280;32029;51.358;5.628;2023-04-07T06:52:20;101363.66;;;12.05;90.66
46303;BME280;32029;51.358;5.628;2023-04-07T06:54:47;101363.50;;;12.07;91.05
46303;BME280;32029;51.358;5.628;2023-04-07T06:57:14;101371.31;;;12.18;90.66
46303;BME280;32029;51.358;5.628;2023-04-07T06:59:41;101359.28;;;12.19;89.96
46303;BME280;32029;51.358;5.628;2023-04-07T07:02:07;101372.47;;;12.23;89.82
46303;BME280;32029;51.358;5.628;2023-04-07T07:04:34;101375.72;;;12.27;90.13
46303;BME280;32029;51.358;5.628;2023-04-07T07:07:01;101380.66;;;12.32;90.00
46303;BME280;32029;51.358;5.628;2023-04-07T07:09:28;101376.88;;;12.33;88.96
46303;BME280;32029;51.358;5.628;2023-04-07T07:11:55;101383.09;;;12.26;89.80
46303;BME280;32029;51.358;5.628;2023-04-07T07:14:21;101375.06;;;12.25;89.57
46303;BME280;32029;51.358;5.628;2023-04-07T07:16:48;101383.75;;;12.29;89.91
46303;BME280;32029;51.358;5.628;2023-04-07T07:19:15;101386.16;;;12.32;89.68
46303;BME280;32029;51.358;5.628;2023-04-07T07:21:42;101384.75;;;12.36;89.61
46303;BME280;32029;51.358;5.628;2023-04-07T07:24:08;101394.16;;;12.41;90.13
46303;BME280;32029;51.358;5.628;2023-04-07T07:26:35;101396.84;;;12.49;90.49
46303;BME280;32029;51.358;5.628;2023-04-07T07:29:02;101398.66;;;12.57;89.59
46303;BME280;32029;51.358;5.628;2023-04-07T07:31:28;101393.81;;;12.59;89.11
46303;BME280;32029;51.358;5.628;2023-04-07T07:33:56;101398.31;;;12.60;88.80
46303;BME280;32029;51.358;5.628;2023-04-07T07:36:23;101395.53;;;12.60;88.44
46303;BME280;32029;51.358;5.628;2023-04-07T07:38:50;101406.16;;;12.63;88.52
46303;BME280;32029;51.358;5.628;2023-04-07T07:41:17;101393.44;;;12.62;88.15
46303;BME280;32029;51.358;5.628;2023-04-07T07:43:43;101408.19;;;12.69;88.55
46303;BME280;32029;51.358;5.628;2023-04-07T07:46:10;101404.00;;;12.73;88.22
46303;BME280;32029;51.358;5.628;2023-04-07T07:48:37;101411.69;;;12.78;87.40
46303;BME280;32029;51.358;5.628;2023-04-07T07:51:04;101400.78;;;12.70;86.90
46303;BME280;32029;51.358;5.628;2023-04-07T07:53:30;101403.63;;;12.77;87.18
46303;BME280;32029;51.358;5.628;2023-04-07T07:55:57;101412.47;;;12.87;87.46
46303;BME280;32029;51.358;5.628;2023-04-07T07:58:23;101414.28;;;12.94;87.38
46303;BME280;32029;51.358;5.628;2023-04-07T08:00:50;101370.75;;;12.75;86.61
46303;BME280;32029;51.358;5.628;2023-04-07T08:03:17;101424.66;;;13.07;85.97
46303;BME280;32029;51.358;5.628;2023-04-07T08:05:45;101415.34;;;13.08;85.16
46303;BME280;32029;51.358;5.628;2023-04-07T08:08:12;101394.81;;;12.96;85.24
46303;BME280;32029;51.358;5.628;2023-04-07T08:10:39;101440.91;;;13.17;84.13
46303;BME280;32029;51.358;5.628;2023-04-07T08:13:05;101435.28;;;13.10;83.54
46303;BME280;32029;51.358;5.628;2023-04-07T08:15:32;101430.53;;;13.04;83.90
46303;BME280;32029;51.358;5.628;2023-04-07T08:17:59;101435.00;;;13.05;84.08
46303;BME280;32029;51.358;5.628;2023-04-07T08:20:26;101433.94;;;13.06;84.51
46303;BME280;32029;51.358;5.628;2023-04-07T08:22:52;101432.16;;;13.13;83.42
46303;BME280;32029;51.358;5.628;2023-04-07T08:25:19;101421.34;;;13.12;82.71
46303;BME280;32029;51.358;5.628;2023-04-07T08:27:46;101437.50;;;13.30;81.93
46303;BME280;32029;51.358;5.628;2023-04-07T08:30:13;101441.03;;;13.38;81.07
46303;BME280;32029;51.358;5.628;2023-04-07T08:32:41;101426.84;;;13.41;80.38
46303;BME280;32029;51.358;5.628;2023-04-07T08:35:08;101435.59;;;13.45;80.91
46303;BME280;32029;51.358;5.628;2023-04-07T08:37:35;101438.19;;;13.46;80.76
46303;BME280;32029;51.358;5.628;2023-04-07T08:40:02;101432.84;;;13.45;80.65
46303;BME280;32029;51.358;5.628;2023-04-07T08:42:31;101444.34;;;13.48;80.20
46303;BME280;32029;51.358;5.628;2023-04-07T08:45:04;101455.00;;;13.52;79.90
46303;BME280;32029;51.358;5.628;2023-04-07T08:47:33;101444.81;;;13.52;79.28
46303;BME280;32029;51.358;5.628;2023-04-07T08:50:05;101437.41;;;13.38;78.67
46303;BME280;32029;51.358;5.628;2023-04-07T08:55:03;101466.13;;;13.58;79.20
46303;BME280;32029;51.358;5.628;2023-04-07T08:57:32;101426.09;;;13.47;78.52
46303;BME280;32029;51.358;5.628;2023-04-07T09:00:00;101446.63;;;13.60;78.78
46303;BME280;32029;51.358;5.628;2023-04-07T09:02:35;101461.72;;;13.79;77.32
46303;BME280;32029;51.358;5.628;2023-04-07T09:05:03;101465.78;;;13.83;76.31
46303;BME280;32029;51.358;5.628;2023-04-07T09:07:31;101471.97;;;13.85;76.89
46303;BME280;32029;51.358;5.628;2023-04-07T09:09:59;101462.34;;;13.81;75.28
46303;BME280;32029;51.358;5.628;2023-04-07T09:12:28;101477.09;;;13.88;75.46
46303;BME280;32029;51.358;5.628;2023-04-07T09:14:55;101472.34;;;13.96;75.17
46303;BME280;32029;51.358;5.628;2023-04-07T09:17:21;101471.34;;;14.04;75.49
46303;BME280;32029;51.358;5.628;2023-04-07T09:19:51;101476.94;;;14.11;75.92
46303;BME280;32029;51.358;5.628;2023-04-07T09:22:37;101473.88;;;14.20;76.51
46303;BME280;32029;51.358;5.628;2023-04-07T09:25:30;101471.63;;;14.31;75.92
46303;BME280;32029;51.358;5.628;2023-04-07T09:28:03;101471.84;;;14.29;76.29
46303;BME280;32029;51.358;5.628;2023-04-07T09:30:32;101472.44;;;14.25;75.61
46303;BME280;32029;51.358;5.628;2023-04-07T09:33:00;101468.84;;;14.24;75.99
46303;BME280;32029;51.358;5.628;2023-04-07T09:35:26;101467.94;;;14.23;75.55
46303;BME280;32029;51.358;5.628;2023-04-07T09:38:04;101472.28;;;14.11;75.80
46303;BME280;32029;51.358;5.628;2023-04-07T09:40:31;101464.41;;;14.08;75.90
46303;BME280;32029;51.358;5.628;2023-04-07T09:42:59;101470.09;;;14.07;76.05
46303;BME280;32029;51.358;5.628;2023-04-07T09:45:29;101438.97;;;13.77;76.20
46303;BME280;32029;51.358;5.628;2023-04-07T09:48:05;101482.03;;;13.92;76.33
46303;BME280;32029;51.358;5.628;2023-04-07T09:50:33;101475.00;;;13.90;76.62
46303;BME280;32029;51.358;5.628;2023-04-07T09:53:01;101483.47;;;13.88;76.42
46303;BME280;32029;51.358;5.628;2023-04-07T09:55:29;101480.91;;;13.87;74.81
46303;BME280;32029;51.358;5.628;2023-04-07T09:57:56;101478.16;;;13.87;74.47
46303;BME280;32029;51.358;5.628;2023-04-07T10:00:23;101482.22;;;13.91;75.01
46303;BME280;32029;51.358;5.628;2023-04-07T10:02:50;101482.59;;;14.03;74.96
46303;BME280;32029;51.358;5.628;2023-04-07T10:05:18;101480.84;;;14.16;74.57
46303;BME280;32029;51.358;5.628;2023-04-07T10:07:47;101480.97;;;14.30;73.25
46303;BME280;32029;51.358;5.628;2023-04-07T10:10:14;101481.91;;;14.37;71.76
46303;BME280;32029;51.358;5.628;2023-04-07T10:12:42;101479.41;;;14.42;71.43
46303;BME280;32029;51.358;5.628;2023-04-07T10:15:12;101484.16;;;14.48;71.37
46303;BME280;32029;51.358;5.628;2023-04-07T10:17:46;101491.47;;;14.56;70.66
46303;BME280;32029;51.358;5.628;2023-04-07T10:20:17;101480.91;;;14.59;70.54
46303;BME280;32029;51.358;5.628;2023-04-07T10:22:45;101487.13;;;14.68;70.13
46303;BME280;32029;51.358;5.628;2023-04-07T10:25:15;101493.75;;;14.74;70.42
46303;BME280;32029;51.358;5.628;2023-04-07T10:27:54;101495.53;;;14.81;70.88
46303;BME280;32029;51.358;5.628;2023-04-07T10:30:27;101502.34;;;14.85;70.09
46303;BME280;32029;51.358;5.628;2023-04-07T10:32:54;101494.44;;;14.76;69.30
46303;BME280;32029;51.358;5.628;2023-04-07T10:35:21;101500.94;;;14.68;70.13
46303;BME280;32029;51.358;5.628;2023-04-07T10:38:09;101502.19;;;14.65;70.16
46303;BME280;32029;51.358;5.628;2023-04-07T10:40:36;101499.03;;;14.68;69.94
46303;BME280;32029;51.358;5.628;2023-04-07T10:43:06;101500.09;;;14.67;69.74
46303;BME280;32029;51.358;5.628;2023-04-07T10:46:00;101495.22;;;14.69;70.15
46303;BME280;32029;51.358;5.628;2023-04-07T10:48:26;101495.88;;;14.72;70.62
46303;BME280;32029;51.358;5.628;2023-04-07T10:53:30;101492.59;;;14.83;70.72
46303;BME280;32029;51.358;5.628;2023-04-07T10:55:57;101489.59;;;14.84;70.18
46303;BME280;32029;51.358;5.628;2023-04-07T10:58:26;101505.19;;;14.92;69.43
46303;BME280;32029;51.358;5.628;2023-04-07T11:03:23;101511.38;;;14.94;70.08
46303;BME280;32029;51.358;5.628;2023-04-07T11:05:50;101503.34;;;14.99;69.92
46303;BME280;32029;51.358;5.628;2023-04-07T11:08:39;101512.28;;;15.01;69.97
46303;BME280;32029;51.358;5.628;2023-04-07T11:11:09;101514.78;;;14.96;69.80
46303;BME280;32029;51.358;5.628;2023-04-07T11:13:47;101519.16;;;14.84;70.43
46303;BME280;32029;51.358;5.628;2023-04-07T11:16:16;101519.28;;;14.76;70.88
46303;BME280;32029;51.358;5.628;2023-04-07T11:18:44;101521.34;;;14.67;71.30
46303;BME280;32029;51.358;5.628;2023-04-07T11:21:16;101520.88;;;14.63;72.68
46303;BME280;32029;51.358;5.628;2023-04-07T11:23:44;101514.50;;;14.63;73.88
46303;BME280;32029;51.358;5.628;2023-04-07T11:26:13;101515.22;;;14.72;73.86
46303;BME280;32029;51.358;5.628;2023-04-07T11:28:50;101520.59;;;14.80;72.56
46303;BME280;32029;51.358;5.628;2023-04-07T11:31:26;101510.88;;;14.84;73.23
46303;BME280;32029;51.358;5.628;2023-04-07T11:33:54;101513.13;;;15.02;73.10
46303;BME280;32029;51.358;5.628;2023-04-07T11:38:54;101513.84;;;15.38;70.99
46303;BME280;32029;51.358;5.628;2023-04-07T11:41:24;101522.94;;;15.60;69.40
46303;BME280;32029;51.358;5.628;2023-04-07T11:44:07;101529.00;;;15.77;69.07
46303;BME280;32029;51.358;5.628;2023-04-07T11:46:34;101521.19;;;15.94;68.92
46303;BME280;32029;51.358;5.628;2023-04-07T11:49:12;101529.16;;;16.10;67.15
46303;BME280;32029;51.358;5.628;2023-04-07T11:51:41;101528.28;;;16.03;65.69
46303;BME280;32029;51.358;5.628;2023-04-07T11:54:09;101525.25;;;15.98;65.30
46303;BME280;32029;51.358;5.628;2023-04-07T11:56:44;101531.59;;;15.85;66.07
46303;BME280;32029;51.358;5.628;2023-04-07T11:59:22;101543.53;;;15.86;64.87
46303;BME280;32029;51.358;5.628;2023-04-07T12:01:51;101535.63;;;15.83;65.24
46303;BME280;32029;51.358;5.628;2023-04-07T12:04:18;101547.34;;;15.85;64.76
46303;BME280;32029;51.358;5.628;2023-04-07T12:06:46;101543.53;;;15.86;64.93
46303;BME280;32029;51.358;5.628;2023-04-07T12:09:28;101552.09;;;15.98;64.78
46303;BME280;32029;51.358;5.628;2023-04-07T12:11:56;101526.56;;;16.02;64.54
46303;BME280;32029;51.358;5.628;2023-04-07T12:14:24;101544.53;;;16.20;64.24
46303;BME280;32029;51.358;5.628;2023-04-07T12:16:51;101540.09;;;16.32;62.75
46303;BME280;32029;51.358;5.628;2023-04-07T12:19:22;101536.25;;;16.33;61.96
46303;BME280;32029;51.358;5.628;2023-04-07T12:21:49;101545.41;;;16.33;62.38
46303;BME280;32029;51.358;5.628;2023-04-07T12:24:16;101531.56;;;16.27;62.52
46303;BME280;32029;51.358;5.628;2023-04-07T12:26:43;101560.38;;;16.39;61.51
46303;BME280;32029;51.358;5.628;2023-04-07T12:29:10;101559.94;;;16.42;61.77
46303;BME280;32029;51.358;5.628;2023-04-07T12:31:37;101559.94;;;16.42;61.52
46303;BME280;32029;51.358;5.628;2023-04-07T12:34:03;101547.56;;;16.38;61.73
46303;BME280;32029;51.358;5.628;2023-04-07T12:36:31;101556.13;;;16.43;62.28
46303;BME280;32029;51.358;5.628;2023-04-07T12:38:57;101556.13;;;16.50;61.92
46303;BME280;32029;51.358;5.628;2023-04-07T12:41:24;101539.88;;;16.33;61.73
46303;BME280;32029;51.358;5.628;2023-04-07T12:43:51;101571.44;;;16.46;61.53
46303;BME280;32029;51.358;5.628;2023-04-07T12:46:18;101569.31;;;16.41;61.90
46303;BME280;32029;51.358;5.628;2023-04-07T12:48:45;101572.47;;;16.38;62.61
46303;BME280;32029;51.358;5.628;2023-04-07T12:51:13;101566.69;;;16.26;62.04
46303;BME280;32029;51.358;5.628;2023-04-07T12:53:40;101573.09;;;16.27;62.47
46303;BME280;32029;51.358;5.628;2023-04-07T12:56:06;101586.69;;;16.22;62.79
46303;BME280;32029;51.358;5.628;2023-04-07T12:58:33;101585.19;;;16.12;63.62
46303;BME280;32029;51.358;5.628;2023-04-07T13:01:00;101590.88;;;16.04;63.79
46303;BME280;32029;51.358;5.628;2023-04-07T13:03:26;101573.97;;;15.86;63.71
46303;BME280;32029;51.358;5.628;2023-04-07T13:05:53;101596.75;;;15.88;63.39
46303;BME280;32029;51.358;5.628;2023-04-07T13:08:20;101594.78;;;15.82;63.36
46303;BME280;32029;51.358;5.628;2023-04-07T13:10:47;101585.59;;;15.75;63.52